Mabscott, WV (25871)

5:08 AM EDT on July 02, 2015 (GMT -0400)
Southeast Beckley | | Change Station
CLOSE
Current Station
Personal Weather Station
Location: Beckley, WV
Elevation: 2365 ft
Nearby Weather Stations

Elev 2365 ft 37.76 °N, 81.16 °W | Updated 13 seconds ago

Rain
Rain
63.5 °F
Feels Like 63.5 °F
N
0.0
Wind Variable Wind from East
Gusts 0.0 mph

Today
High -- | Low -- °F
--% Chance of Precip.
Yesterday
High -- | Low -- °F
Precip. -- in
6:06 AM 8:50 PM
Full, 100% visible
Pressure 29.97 in
Visibility 1.5 miles
Clouds Scattered Clouds 1700 ft
Mostly Cloudy 2100 ft
Overcast 3900 ft
Dew Point 62 °F
Humidity 96%
Rainfall 1.33 in
Snow Depth Not available.
UV 0 out of 12
Pollen 3.40 out of 12
Air Quality Not available.
Flu Activity Not available.
SPECI KBKW 020903Z AUTO 23004KT 1 1/2SM +RA BR SCT017 BKN021 OVC039 18/17 A2997 RMK AO2 P0005 T01780167

More Conditions Fewer Conditions

Pressure 29.97 in
Visibility 1.5 miles
Clouds Scattered Clouds 1700 ft
Mostly Cloudy 2100 ft
Overcast 3900 ft
Dew Point 62 °F
Humidity 96%
Rainfall 1.33 in
Snow Depth Not available.
UV 0 out of 12
Pollen 3.40 out of 12
Air Quality Not available.
Flu Activity Not available.
SPECI KBKW 020903Z AUTO 23004KT 1 1/2SM +RA BR SCT017 BKN021 OVC039 18/17 A2997 RMK AO2 P0005 T01780167

More Conditions Fewer Conditions

10-Day Weather Forecast

×

Almanac

Astronomy

Jul. 02, 2015 Rise Set
Actual Time
Civil Twilight
Nautical Twilight
Astronomical Twilight
Moon
Length of Visible Light
Length of Day
Tomorrow will be .
, % of the Moon is Illuminated

Today's Extremes

State Highs State Lows

Community

WunderPhotos

Upload Photos

1,834,423 photos uploaded!

WunderBlogs® & News

Nearby

Air Quality

  Air Quality AQ Index Pollutant
Not available.

Snow Depth

Station Depth Elevation

Earthquake Activity

City Distance Mag. Time & Date
Minimum magnitude displayed is 2.5.

Coastal Water Temperatures

Place Temperature

Stations

Nearby Weather Stations

Station Location Temp. Windchill Dew Point Humidity Wind Precip. Elev Updated Type